Aaronsburg, Pennsylvania
Current Conditions -  °F | °C
As of 12:53 PM on Thursday 23 Oct 2014 (Local Time) from KUNV Reporting Station
Broken Clouds Broken Clouds  
Wind Chill: 13°   Ceiling: 3500
Heat Index: 13°   Visibility: 10mi
Dew Point:   Wind: 14mph
Humidity: 63%   Direction: 330°NNW
Pressure: 29.94"   Gusts: NA
Location:  40.9°N, 77.45°W
Report Text: KUNV 231653Z 33012KT 10SM BKN035 13/06 A2994
Loading
Personal Weather Stations






























Interactive Weather Map
Tropical Storm Tracking
New forecast layout! Learn more

10-Day Weather Forecast

Advertisements
Track Severe Weather on mobile